createdAt,value
2023-01-19T00:00:53.609Z,9.88
2023-01-19T00:04:56.689Z,7.68
2023-01-19T00:08:59.464Z,11.35
2023-01-19T00:13:02.498Z,8.93
2023-01-19T00:17:07.197Z,9.35
2023-01-19T00:21:09.986Z,8.82
2023-01-19T00:25:12.844Z,8.23
2023-01-19T00:29:15.878Z,7.43
2023-01-19T00:33:20.540Z,7.47
2023-01-19T00:37:23.469Z,8.75
2023-01-19T00:41:40.500Z,9.02
2023-01-19T00:45:43.317Z,7.28
2023-01-19T00:49:48.115Z,8.57
2023-01-19T00:53:50.918Z,9.85
2023-01-19T00:57:54.095Z,10.10
2023-01-19T01:01:57.400Z,7.75
2023-01-19T01:06:01.829Z,9.15
2023-01-19T01:10:04.827Z,9.10
2023-01-19T01:14:08.550Z,10.70
2023-01-19T01:18:11.607Z,11.95
2023-01-19T01:22:15.952Z,6.90
2023-01-19T01:26:19.201Z,9.20
2023-01-19T01:30:22.702Z,8.02
2023-01-19T01:34:25.775Z,8.45
2023-01-19T01:38:30.204Z,8.40
2023-01-19T01:42:35.019Z,8.73
2023-01-19T01:46:37.938Z,8.85
2023-01-19T01:51:05.882Z,10.55
2023-01-19T01:55:11.899Z,8.80
2023-01-19T01:59:25.640Z,8.18
2023-01-19T02:03:29.779Z,8.90
2023-01-19T02:07:57.318Z,10.48
2023-01-19T02:12:19.505Z,8.90
2023-01-19T02:16:22.869Z,10.15
2023-01-19T02:20:29.023Z,8.15
2023-01-19T02:24:33.578Z,7.82
2023-01-19T02:28:39.013Z,9.68
2023-01-19T02:32:41.908Z,11.52
2023-01-19T02:36:50.351Z,10.25
2023-01-19T02:40:55.636Z,8.93
2023-01-19T02:44:58.857Z,8.50
2023-01-19T02:49:02.224Z,9.52
2023-01-19T02:53:18.555Z,13.43
2023-01-19T02:57:40.543Z,10.57
2023-01-19T03:01:59.431Z,9.65
2023-01-19T03:06:07.341Z,9.13
2023-01-19T03:10:21.497Z,9.48
2023-01-19T03:14:31.649Z,9.40
2023-01-19T03:18:38.290Z,8.88
2023-01-19T03:22:42.186Z,8.85
2023-01-19T03:26:50.279Z,9.48
2023-01-19T03:30:59.440Z,8.63
2023-01-19T03:35:06.706Z,8.32
2023-01-19T03:39:12.001Z,9.07
2023-01-19T03:43:17.522Z,9.45
2023-01-19T03:47:26.407Z,9.02
2023-01-19T03:51:32.350Z,7.95
2023-01-19T03:55:39.965Z,9.40
2023-01-19T03:59:43.115Z,8.27
2023-01-19T04:03:48.299Z,8.52
2023-01-19T04:07:52.166Z,9.98
2023-01-19T04:13:02.106Z,8.32
2023-01-19T04:17:09.219Z,8.48
2023-01-19T04:21:13.847Z,8.10
2023-01-19T04:25:19.145Z,10.27
2023-01-19T04:31:06.710Z,9.70
2023-01-19T04:35:00.573Z,13.00
2023-01-19T04:39:05.110Z,12.02
2023-01-19T04:43:09.407Z,9.15
2023-01-19T04:47:12.658Z,8.95
2023-01-19T04:51:22.910Z,10.02
2023-01-19T04:55:27.756Z,11.85
2023-01-19T04:59:34.006Z,8.82
2023-01-19T05:03:39.779Z,9.90
2023-01-19T05:07:44.838Z,9.15
2023-01-19T05:11:49.388Z,10.27
2023-01-19T05:15:52.985Z,8.75
2023-01-19T05:19:56.411Z,9.35
2023-01-19T05:24:02.181Z,10.82
2023-01-19T05:28:11.684Z,10.05
2023-01-19T05:32:16.429Z,10.32
2023-01-19T05:36:29.054Z,10.30
2023-01-19T05:40:34.052Z,7.18
2023-01-19T05:44:38.775Z,10.63
2023-01-19T05:48:42.501Z,11.18
2023-01-19T05:52:48.966Z,10.07
2023-01-19T05:56:52.560Z,10.00
2023-01-19T06:01:19.503Z,11.27
2023-01-19T06:05:25.681Z,9.48
2023-01-19T06:09:43.693Z,10.07
2023-01-19T06:13:46.907Z,11.82
2023-01-19T06:17:51.539Z,11.38
2023-01-19T06:21:57.628Z,8.75
2023-01-19T06:26:00.853Z,9.52
2023-01-19T06:30:04.511Z,8.73
2023-01-19T06:34:09.699Z,8.00
2023-01-19T06:38:13.685Z,9.80
2023-01-19T06:42:21.599Z,8.68
2023-01-19T06:46:26.599Z,8.95
2023-01-19T06:50:31.313Z,12.63
2023-01-19T06:54:35.539Z,12.18
2023-01-19T06:58:38.548Z,10.70
2023-01-19T07:02:43.300Z,8.73
2023-01-19T07:06:47.467Z,7.13
2023-01-19T07:11:26.541Z,8.57
2023-01-19T07:15:13.186Z,10.95
2023-01-19T07:19:17.733Z,8.70
2023-01-19T07:23:21.976Z,9.93
2023-01-19T07:27:26.514Z,8.73
2023-01-19T07:31:29.363Z,10.20
2023-01-19T07:35:32.152Z,10.13
2023-01-19T07:39:36.642Z,8.55
2023-01-19T07:43:39.489Z,9.60
2023-01-19T07:47:44.306Z,8.68
2023-01-19T07:51:47.314Z,8.27
2023-01-19T07:55:56.689Z,8.10
2023-01-19T07:59:59.461Z,7.60
2023-01-19T08:04:02.273Z,6.97
2023-01-19T08:08:05.707Z,7.30
2023-01-19T08:12:10.064Z,7.38
2023-01-19T08:16:13.053Z,5.70
2023-01-19T08:20:15.958Z,6.82
2023-01-19T08:24:21.335Z,5.25
2023-01-19T08:28:25.869Z,4.65
2023-01-19T08:32:28.800Z,4.70
2023-01-19T08:36:31.767Z,4.20
2023-01-19T08:40:37.070Z,3.75
2023-01-19T08:44:49.738Z,4.45
2023-01-19T08:48:59.966Z,4.35
2023-01-19T08:53:04.501Z,3.13
2023-01-19T08:57:07.349Z,3.33
2023-01-19T09:01:14.693Z,4.15
2023-01-19T09:05:17.935Z,3.78
2023-01-19T09:09:20.696Z,4.50
2023-01-19T09:13:23.756Z,5.32
2023-01-19T09:17:27.877Z,4.40
2023-01-19T09:21:30.705Z,3.50
2023-01-19T09:25:33.690Z,3.13
2023-01-19T09:29:37.262Z,5.32
2023-01-19T09:33:41.490Z,3.35
2023-01-19T09:37:47.393Z,4.90
2023-01-19T09:42:02.391Z,5.05
2023-01-19T09:46:11.596Z,6.60
2023-01-19T09:50:20.732Z,4.07
2023-01-19T09:54:30.216Z,4.22
2023-01-19T09:58:33.066Z,3.45
2023-01-19T10:02:41.167Z,3.20
2023-01-19T10:06:47.776Z,4.00
2023-01-19T10:10:55.910Z,5.40
2023-01-19T10:15:11.059Z,5.40
2023-01-19T10:19:23.025Z,8.57
2023-01-19T10:23:38.294Z,7.80
2023-01-19T10:27:41.654Z,9.50
2023-01-19T10:31:47.259Z,7.13
2023-01-19T10:35:50.497Z,8.32
2023-01-19T10:39:56.839Z,8.50
2023-01-19T10:44:04.252Z,7.18
2023-01-19T10:48:09.165Z,7.95
2023-01-19T10:52:24.838Z,9.90
2023-01-19T10:56:32.900Z,8.95
2023-01-19T11:00:38.212Z,10.13
2023-01-19T11:04:42.078Z,8.98
2023-01-19T11:08:54.495Z,8.50
2023-01-19T11:13:02.965Z,9.18
2023-01-19T11:17:06.694Z,9.73
2023-01-19T11:21:13.157Z,8.73
2023-01-19T11:25:27.086Z,16.23
2023-01-19T11:29:31.969Z,15.88
2023-01-19T11:33:36.938Z,16.20
2023-01-19T11:37:42.803Z,19.42
2023-01-19T11:41:50.226Z,23.17
2023-01-19T11:45:57.134Z,23.38
2023-01-19T11:50:04.897Z,26.55
2023-01-19T11:54:18.877Z,28.05
2023-01-19T11:58:22.316Z,27.95
2023-01-19T12:02:30.137Z,31.58
2023-01-19T12:06:36.621Z,38.35
2023-01-19T12:10:43.644Z,31.33
2023-01-19T12:14:56.764Z,33.03
2023-01-19T12:19:03.522Z,36.60
2023-01-19T12:23:19.129Z,32.38
2023-01-19T12:27:35.383Z,33.83
2023-01-19T12:31:40.817Z,34.95
2023-01-19T12:35:59.585Z,33.85
2023-01-19T12:40:05.526Z,40.85
2023-01-19T12:44:21.104Z,38.22
2023-01-19T12:48:28.349Z,42.65
2023-01-19T12:52:34.759Z,36.13
2023-01-19T12:56:39.389Z,37.50
2023-01-19T13:00:43.930Z,36.00
2023-01-19T13:05:19.385Z,40.17
2023-01-19T13:09:31.580Z,40.63
2023-01-19T13:13:36.701Z,34.95
2023-01-19T13:17:50.280Z,27.63
2023-01-19T13:21:54.968Z,33.08
2023-01-19T13:26:06.318Z,33.67
2023-01-19T13:30:16.656Z,34.95
2023-01-19T13:34:22.250Z,35.65
2023-01-19T13:38:26.192Z,33.45
2023-01-19T13:42:34.771Z,33.25
2023-01-19T13:46:38.514Z,34.70
2023-01-19T13:50:42.657Z,29.50
2023-01-19T13:54:50.092Z,28.88
2023-01-19T13:59:10.142Z,29.45
2023-01-19T14:03:21.329Z,34.58
2023-01-19T14:07:26.456Z,31.65
2023-01-19T14:11:29.335Z,27.77
2023-01-19T14:15:35.995Z,29.40
2023-01-19T14:19:51.651Z,27.67
2023-01-19T14:23:57.272Z,25.52
2023-01-19T14:28:35.346Z,27.25
2023-01-19T14:32:47.491Z,32.47
2023-01-19T14:36:52.485Z,29.70
2023-01-19T14:40:55.441Z,31.88
2023-01-19T14:45:00.751Z,31.17
2023-01-19T14:49:07.383Z,29.77
2023-01-19T14:53:17.835Z,32.00
2023-01-19T14:57:20.734Z,32.53
2023-01-19T15:01:25.176Z,30.63
2023-01-19T15:05:29.362Z,29.33
2023-01-19T15:09:32.124Z,30.67
2023-01-19T15:13:34.893Z,27.83
2023-01-19T15:17:37.672Z,26.02
2023-01-19T15:21:43.122Z,28.98
2023-01-19T15:25:46.084Z,28.30
2023-01-19T15:29:48.929Z,30.23
2023-01-19T15:33:51.802Z,31.30
2023-01-19T15:37:55.921Z,31.23
2023-01-19T15:41:58.741Z,30.73
2023-01-19T15:46:02.593Z,30.98
2023-01-19T15:50:06.034Z,36.60
2023-01-19T15:54:14.357Z,38.75
2023-01-19T15:58:17.146Z,39.10
2023-01-19T16:02:20.066Z,38.53
2023-01-19T16:06:22.960Z,31.83
2023-01-19T16:10:27.130Z,34.05
2023-01-19T16:14:30.066Z,41.88
2023-01-19T16:18:33.097Z,32.15
2023-01-19T16:22:36.852Z,34.28
2023-01-19T16:26:40.969Z,31.17
2023-01-19T16:30:43.894Z,33.72
2023-01-19T16:34:46.710Z,31.90
2023-01-19T16:38:49.474Z,34.22
2023-01-19T16:42:53.544Z,31.75
2023-01-19T16:46:56.359Z,34.97
2023-01-19T16:51:01.282Z,31.55
2023-01-19T16:55:08.828Z,38.92
2023-01-19T16:59:14.341Z,34.15
2023-01-19T17:03:17.324Z,33.08
2023-01-19T17:07:20.283Z,33.67
2023-01-19T17:11:25.559Z,29.52
2023-01-19T17:15:31.595Z,34.67
2023-01-19T17:19:34.529Z,34.00
2023-01-19T17:23:38.712Z,35.28
2023-01-19T17:27:41.610Z,32.42
2023-01-19T17:31:46.872Z,36.42
2023-01-19T17:35:50.067Z,33.65
2023-01-19T17:39:52.893Z,25.52
2023-01-19T17:43:56.361Z,32.88
2023-01-19T17:48:00.678Z,37.22
2023-01-19T17:52:04.464Z,28.90
2023-01-19T17:56:09.388Z,34.08
2023-01-19T18:00:13.892Z,31.15
2023-01-19T18:04:18.397Z,34.80
2023-01-19T18:08:21.493Z,29.83
2023-01-19T18:12:25.242Z,31.83
2023-01-19T18:16:30.081Z,31.83
2023-01-19T18:20:37.503Z,27.75
2023-01-19T18:24:40.496Z,30.25
2023-01-19T18:28:46.981Z,33.03
2023-01-19T18:32:51.710Z,27.85
2023-01-19T18:36:56.343Z,32.35
2023-01-19T18:41:03.867Z,32.88
2023-01-19T18:45:07.969Z,29.15
2023-01-19T18:49:11.434Z,27.20
2023-01-19T18:53:16.622Z,31.30
2023-01-19T18:57:27.815Z,26.13
2023-01-19T19:01:35.117Z,30.20
2023-01-19T19:05:38.129Z,29.10
2023-01-19T19:09:42.573Z,25.02
2023-01-19T19:13:45.644Z,24.67
2023-01-19T19:17:52.386Z,21.48
2023-01-19T19:21:56.749Z,19.92
2023-01-19T19:26:05.302Z,27.70
2023-01-19T19:30:09.961Z,21.70
2023-01-19T19:34:13.356Z,25.60
2023-01-19T19:38:16.405Z,29.13
2023-01-19T19:42:24.061Z,30.58
2023-01-19T19:46:28.339Z,25.50
2023-01-19T19:50:31.611Z,25.02
2023-01-19T19:54:34.809Z,28.73
2023-01-19T19:58:39.780Z,24.92
2023-01-19T20:02:55.369Z,22.48
2023-01-19T20:07:00.629Z,24.65
2023-01-19T20:11:08.729Z,29.73
2023-01-19T20:15:13.554Z,21.15
2023-01-19T20:19:17.811Z,22.95
2023-01-19T20:23:20.894Z,24.02
2023-01-19T20:27:23.930Z,23.08
2023-01-19T20:31:32.680Z,26.52
2023-01-19T20:35:35.988Z,23.67
2023-01-19T20:39:39.311Z,26.42
2023-01-19T20:43:42.371Z,25.83
2023-01-19T20:47:47.012Z,25.42
2023-01-19T20:51:52.148Z,24.13
2023-01-19T20:55:59.370Z,24.20
2023-01-19T21:00:03.378Z,22.88
2023-01-19T21:04:13.981Z,26.98
2023-01-19T21:08:18.355Z,24.58
2023-01-19T21:12:23.184Z,25.60
2023-01-19T21:16:34.894Z,23.45
2023-01-19T21:21:00.788Z,25.25
2023-01-19T21:25:03.993Z,24.38
2023-01-19T21:29:06.884Z,24.33
2023-01-19T21:33:11.124Z,22.27
2023-01-19T21:37:15.443Z,19.35
2023-01-19T21:41:18.595Z,21.88
2023-01-19T21:45:21.487Z,25.33
2023-01-19T21:49:24.293Z,22.77
2023-01-19T21:53:28.416Z,23.52
2023-01-19T21:57:31.539Z,25.33
2023-01-19T22:01:35.153Z,28.83
2023-01-19T22:05:38.169Z,27.90
2023-01-19T22:09:42.341Z,28.83
2023-01-19T22:13:45.065Z,28.65
2023-01-19T22:17:47.829Z,31.75
2023-01-19T22:22:04.878Z,27.92
2023-01-19T22:26:12.830Z,25.98
2023-01-19T22:30:17.221Z,27.08
2023-01-19T22:34:20.157Z,22.05
2023-01-19T22:38:22.940Z,21.05
2023-01-19T22:42:27.204Z,21.75
2023-01-19T22:46:37.679Z,21.50
2023-01-19T22:50:40.876Z,20.70
2023-01-19T22:54:43.970Z,21.48
2023-01-19T22:58:49.008Z,22.30
2023-01-19T23:02:55.505Z,21.92
2023-01-19T23:07:02.684Z,26.55
2023-01-19T23:11:07.001Z,22.13
2023-01-19T23:15:21.310Z,18.30
2023-01-19T23:19:35.422Z,20.83
2023-01-19T23:23:41.696Z,20.02
2023-01-19T23:27:48.834Z,22.90
2023-01-19T23:31:56.673Z,19.77
2023-01-19T23:36:02.017Z,22.40
2023-01-19T23:40:11.970Z,18.00
2023-01-19T23:44:15.086Z,23.55
2023-01-19T23:48:19.209Z,21.10
2023-01-19T23:52:22.078Z,23.00
2023-01-19T23:56:26.535Z,18.27
